sensor_id;sensor_type;location;lat;lon;timestamp;P1;durP1;ratioP1;P2;durP2;ratioP2
5157;SDS011;2598;52.364;9.772;2023-06-22T00:00:27;13.57;;;11.10;;
5157;SDS011;2598;52.364;9.772;2023-06-22T00:02:53;13.27;;;11.07;;
5157;SDS011;2598;52.364;9.772;2023-06-22T00:05:19;15.30;;;11.23;;
5157;SDS011;2598;52.364;9.772;2023-06-22T00:07:45;13.50;;;11.93;;
5157;SDS011;2598;52.364;9.772;2023-06-22T00:10:11;13.37;;;11.43;;
5157;SDS011;2598;52.364;9.772;2023-06-22T00:12:37;13.37;;;11.97;;
5157;SDS011;2598;52.364;9.772;2023-06-22T00:15:03;16.60;;;10.93;;
5157;SDS011;2598;52.364;9.772;2023-06-22T00:17:29;14.70;;;11.47;;
5157;SDS011;2598;52.364;9.772;2023-06-22T00:19:55;14.20;;;12.27;;
5157;SDS011;2598;52.364;9.772;2023-06-22T00:22:23;14.53;;;11.20;;
5157;SDS011;2598;52.364;9.772;2023-06-22T00:24:53;16.67;;;12.33;;
5157;SDS011;2598;52.364;9.772;2023-06-22T00:27:19;16.00;;;13.10;;
5157;SDS011;2598;52.364;9.772;2023-06-22T00:29:44;20.77;;;13.30;;
5157;SDS011;2598;52.364;9.772;2023-06-22T00:32:10;16.40;;;11.70;;
5157;SDS011;2598;52.364;9.772;2023-06-22T00:34:36;15.80;;;12.27;;
5157;SDS011;2598;52.364;9.772;2023-06-22T00:37:02;15.10;;;12.20;;
5157;SDS011;2598;52.364;9.772;2023-06-22T00:39:28;18.43;;;12.53;;
5157;SDS011;2598;52.364;9.772;2023-06-22T00:41:54;15.23;;;11.73;;
5157;SDS011;2598;52.364;9.772;2023-06-22T00:44:20;13.80;;;11.53;;
5157;SDS011;2598;52.364;9.772;2023-06-22T00:46:46;13.83;;;12.33;;
5157;SDS011;2598;52.364;9.772;2023-06-22T00:49:12;13.87;;;11.90;;
5157;SDS011;2598;52.364;9.772;2023-06-22T00:51:38;16.30;;;11.73;;
5157;SDS011;2598;52.364;9.772;2023-06-22T00:54:10;18.73;;;12.37;;
5157;SDS011;2598;52.364;9.772;2023-06-22T00:56:38;15.07;;;11.97;;
5157;SDS011;2598;52.364;9.772;2023-06-22T00:59:04;16.00;;;13.17;;
5157;SDS011;2598;52.364;9.772;2023-06-22T01:01:30;15.37;;;12.70;;
5157;SDS011;2598;52.364;9.772;2023-06-22T01:03:57;17.60;;;13.77;;
5157;SDS011;2598;52.364;9.772;2023-06-22T01:06:26;17.90;;;14.30;;
5157;SDS011;2598;52.364;9.772;2023-06-22T01:09:02;14.97;;;12.50;;
5157;SDS011;2598;52.364;9.772;2023-06-22T01:11:33;14.50;;;12.60;;
5157;SDS011;2598;52.364;9.772;2023-06-22T01:14:10;22.33;;;13.87;;
5157;SDS011;2598;52.364;9.772;2023-06-22T01:16:40;15.37;;;13.07;;
5157;SDS011;2598;52.364;9.772;2023-06-22T01:19:20;15.93;;;13.70;;
5157;SDS011;2598;52.364;9.772;2023-06-22T01:21:51;16.90;;;13.47;;
5157;SDS011;2598;52.364;9.772;2023-06-22T01:24:22;15.27;;;12.70;;
5157;SDS011;2598;52.364;9.772;2023-06-22T01:29:33;15.23;;;12.70;;
5157;SDS011;2598;52.364;9.772;2023-06-22T01:32:00;19.37;;;14.67;;
5157;SDS011;2598;52.364;9.772;2023-06-22T01:34:28;17.17;;;13.90;;
5157;SDS011;2598;52.364;9.772;2023-06-22T01:36:54;18.70;;;13.03;;
5157;SDS011;2598;52.364;9.772;2023-06-22T01:39:21;17.80;;;13.80;;
5157;SDS011;2598;52.364;9.772;2023-06-22T01:41:47;14.87;;;12.87;;
5157;SDS011;2598;52.364;9.772;2023-06-22T01:44:13;15.60;;;12.20;;
5157;SDS011;2598;52.364;9.772;2023-06-22T01:46:40;14.70;;;12.77;;
5157;SDS011;2598;52.364;9.772;2023-06-22T01:49:06;16.13;;;12.83;;
5157;SDS011;2598;52.364;9.772;2023-06-22T01:51:33;17.07;;;13.10;;
5157;SDS011;2598;52.364;9.772;2023-06-22T01:53:59;17.53;;;12.50;;
5157;SDS011;2598;52.364;9.772;2023-06-22T01:56:25;14.90;;;12.90;;
5157;SDS011;2598;52.364;9.772;2023-06-22T01:59:04;15.13;;;12.60;;
5157;SDS011;2598;52.364;9.772;2023-06-22T02:01:35;14.93;;;13.03;;
5157;SDS011;2598;52.364;9.772;2023-06-22T02:04:04;16.63;;;12.27;;
5157;SDS011;2598;52.364;9.772;2023-06-22T02:06:33;16.57;;;12.10;;
5157;SDS011;2598;52.364;9.772;2023-06-22T02:09:01;15.53;;;13.07;;
5157;SDS011;2598;52.364;9.772;2023-06-22T02:11:28;16.93;;;12.27;;
5157;SDS011;2598;52.364;9.772;2023-06-22T02:13:55;15.60;;;12.13;;
5157;SDS011;2598;52.364;9.772;2023-06-22T02:16:22;15.00;;;12.27;;
5157;SDS011;2598;52.364;9.772;2023-06-22T02:18:48;13.27;;;11.70;;
5157;SDS011;2598;52.364;9.772;2023-06-22T02:21:18;16.80;;;11.53;;
5157;SDS011;2598;52.364;9.772;2023-06-22T02:23:44;16.03;;;12.77;;
5157;SDS011;2598;52.364;9.772;2023-06-22T02:26:10;14.10;;;12.03;;
5157;SDS011;2598;52.364;9.772;2023-06-22T02:28:36;14.50;;;11.90;;
5157;SDS011;2598;52.364;9.772;2023-06-22T02:31:02;13.27;;;11.03;;
5157;SDS011;2598;52.364;9.772;2023-06-22T02:33:28;17.30;;;11.80;;
5157;SDS011;2598;52.364;9.772;2023-06-22T02:35:54;14.40;;;12.30;;
5157;SDS011;2598;52.364;9.772;2023-06-22T02:38:20;14.43;;;11.30;;
5157;SDS011;2598;52.364;9.772;2023-06-22T02:40:48;16.17;;;11.30;;
5157;SDS011;2598;52.364;9.772;2023-06-22T02:43:14;13.77;;;11.10;;
5157;SDS011;2598;52.364;9.772;2023-06-22T02:45:40;16.30;;;11.27;;
5157;SDS011;2598;52.364;9.772;2023-06-22T02:48:06;14.90;;;11.37;;
5157;SDS011;2598;52.364;9.772;2023-06-22T02:50:32;13.70;;;11.07;;
5157;SDS011;2598;52.364;9.772;2023-06-22T02:52:58;12.80;;;10.53;;
5157;SDS011;2598;52.364;9.772;2023-06-22T02:55:24;13.73;;;10.97;;
5157;SDS011;2598;52.364;9.772;2023-06-22T02:57:50;13.00;;;10.73;;
5157;SDS011;2598;52.364;9.772;2023-06-22T03:00:18;12.90;;;10.30;;
5157;SDS011;2598;52.364;9.772;2023-06-22T03:02:44;13.70;;;10.27;;
5157;SDS011;2598;52.364;9.772;2023-06-22T03:05:10;12.53;;;10.40;;
5157;SDS011;2598;52.364;9.772;2023-06-22T03:07:41;13.43;;;10.73;;
5157;SDS011;2598;52.364;9.772;2023-06-22T03:10:08;15.10;;;11.37;;
5157;SDS011;2598;52.364;9.772;2023-06-22T03:12:34;13.33;;;10.10;;
5157;SDS011;2598;52.364;9.772;2023-06-22T03:15:00;14.43;;;11.90;;
5157;SDS011;2598;52.364;9.772;2023-06-22T03:17:26;13.30;;;10.73;;
5157;SDS011;2598;52.364;9.772;2023-06-22T03:19:52;11.97;;;9.77;;
5157;SDS011;2598;52.364;9.772;2023-06-22T03:22:19;13.37;;;10.53;;
5157;SDS011;2598;52.364;9.772;2023-06-22T03:24:45;13.60;;;10.50;;
5157;SDS011;2598;52.364;9.772;2023-06-22T03:27:11;14.90;;;11.27;;
5157;SDS011;2598;52.364;9.772;2023-06-22T03:29:37;13.17;;;10.60;;
5157;SDS011;2598;52.364;9.772;2023-06-22T03:32:03;14.40;;;11.13;;
5157;SDS011;2598;52.364;9.772;2023-06-22T03:34:30;14.43;;;11.47;;
5157;SDS011;2598;52.364;9.772;2023-06-22T03:37:01;13.93;;;11.23;;
5157;SDS011;2598;52.364;9.772;2023-06-22T03:39:27;14.37;;;10.07;;
5157;SDS011;2598;52.364;9.772;2023-06-22T03:41:53;13.17;;;10.07;;
5157;SDS011;2598;52.364;9.772;2023-06-22T03:44:18;15.10;;;12.07;;
5157;SDS011;2598;52.364;9.772;2023-06-22T03:46:44;14.13;;;10.43;;
5157;SDS011;2598;52.364;9.772;2023-06-22T03:49:10;13.20;;;10.30;;
5157;SDS011;2598;52.364;9.772;2023-06-22T03:51:36;13.00;;;10.70;;
5157;SDS011;2598;52.364;9.772;2023-06-22T03:54:03;16.23;;;11.60;;
5157;SDS011;2598;52.364;9.772;2023-06-22T03:56:29;15.67;;;11.90;;
5157;SDS011;2598;52.364;9.772;2023-06-22T03:58:55;18.77;;;12.97;;
5157;SDS011;2598;52.364;9.772;2023-06-22T04:01:21;15.90;;;12.50;;
5157;SDS011;2598;52.364;9.772;2023-06-22T04:03:47;16.20;;;13.07;;
5157;SDS011;2598;52.364;9.772;2023-06-22T04:06:14;14.20;;;12.10;;
5157;SDS011;2598;52.364;9.772;2023-06-22T04:08:40;15.20;;;12.13;;
5157;SDS011;2598;52.364;9.772;2023-06-22T04:11:07;18.30;;;12.13;;
5157;SDS011;2598;52.364;9.772;2023-06-22T04:13:33;13.90;;;12.07;;
5157;SDS011;2598;52.364;9.772;2023-06-22T04:15:59;15.63;;;12.50;;
5157;SDS011;2598;52.364;9.772;2023-06-22T04:18:26;16.77;;;12.07;;
5157;SDS011;2598;52.364;9.772;2023-06-22T04:20:52;16.63;;;12.80;;
5157;SDS011;2598;52.364;9.772;2023-06-22T04:23:18;16.10;;;12.00;;
5157;SDS011;2598;52.364;9.772;2023-06-22T04:25:44;14.30;;;11.13;;
5157;SDS011;2598;52.364;9.772;2023-06-22T04:28:10;14.63;;;12.30;;
5157;SDS011;2598;52.364;9.772;2023-06-22T04:30:37;16.67;;;12.10;;
5157;SDS011;2598;52.364;9.772;2023-06-22T04:33:11;19.93;;;11.40;;
5157;SDS011;2598;52.364;9.772;2023-06-22T04:35:37;20.10;;;12.60;;
5157;SDS011;2598;52.364;9.772;2023-06-22T04:38:06;16.37;;;11.80;;
5157;SDS011;2598;52.364;9.772;2023-06-22T04:40:32;19.23;;;11.53;;
5157;SDS011;2598;52.364;9.772;2023-06-22T04:42:58;17.30;;;13.10;;
5157;SDS011;2598;52.364;9.772;2023-06-22T04:45:27;19.77;;;13.13;;
5157;SDS011;2598;52.364;9.772;2023-06-22T04:47:53;17.70;;;12.77;;
5157;SDS011;2598;52.364;9.772;2023-06-22T04:50:19;15.60;;;13.00;;
5157;SDS011;2598;52.364;9.772;2023-06-22T04:52:46;21.53;;;12.87;;
5157;SDS011;2598;52.364;9.772;2023-06-22T04:55:12;22.30;;;13.40;;
5157;SDS011;2598;52.364;9.772;2023-06-22T04:57:43;19.10;;;13.07;;
5157;SDS011;2598;52.364;9.772;2023-06-22T05:00:13;16.93;;;11.80;;
5157;SDS011;2598;52.364;9.772;2023-06-22T05:02:42;18.20;;;11.20;;
5157;SDS011;2598;52.364;9.772;2023-06-22T05:05:09;16.23;;;11.10;;
5157;SDS011;2598;52.364;9.772;2023-06-22T05:07:38;15.00;;;11.30;;
5157;SDS011;2598;52.364;9.772;2023-06-22T05:10:07;15.43;;;11.30;;
5157;SDS011;2598;52.364;9.772;2023-06-22T05:12:33;19.20;;;11.10;;
5157;SDS011;2598;52.364;9.772;2023-06-22T05:14:59;14.20;;;10.30;;
5157;SDS011;2598;52.364;9.772;2023-06-22T05:17:26;13.80;;;11.13;;
5157;SDS011;2598;52.364;9.772;2023-06-22T05:19:52;17.20;;;10.33;;
5157;SDS011;2598;52.364;9.772;2023-06-22T05:22:18;17.23;;;11.50;;
5157;SDS011;2598;52.364;9.772;2023-06-22T05:24:45;18.50;;;10.17;;
5157;SDS011;2598;52.364;9.772;2023-06-22T05:27:11;14.20;;;10.17;;
5157;SDS011;2598;52.364;9.772;2023-06-22T05:29:37;16.30;;;9.47;;
5157;SDS011;2598;52.364;9.772;2023-06-22T05:32:03;19.13;;;11.50;;
5157;SDS011;2598;52.364;9.772;2023-06-22T05:34:29;11.57;;;9.30;;
5157;SDS011;2598;52.364;9.772;2023-06-22T05:36:55;18.30;;;9.20;;
5157;SDS011;2598;52.364;9.772;2023-06-22T05:39:23;12.77;;;9.90;;
5157;SDS011;2598;52.364;9.772;2023-06-22T05:41:49;14.20;;;9.43;;
5157;SDS011;2598;52.364;9.772;2023-06-22T05:44:15;13.77;;;9.33;;
5157;SDS011;2598;52.364;9.772;2023-06-22T05:46:42;12.63;;;8.93;;
5157;SDS011;2598;52.364;9.772;2023-06-22T05:49:09;16.97;;;9.80;;
5157;SDS011;2598;52.364;9.772;2023-06-22T05:51:35;14.60;;;9.70;;
5157;SDS011;2598;52.364;9.772;2023-06-22T05:54:01;14.87;;;8.83;;
5157;SDS011;2598;52.364;9.772;2023-06-22T05:56:27;11.80;;;8.73;;
5157;SDS011;2598;52.364;9.772;2023-06-22T05:58:53;12.60;;;8.40;;
5157;SDS011;2598;52.364;9.772;2023-06-22T06:01:19;15.90;;;9.30;;
5157;SDS011;2598;52.364;9.772;2023-06-22T06:03:45;11.87;;;8.47;;
5157;SDS011;2598;52.364;9.772;2023-06-22T06:06:11;17.50;;;9.10;;
5157;SDS011;2598;52.364;9.772;2023-06-22T06:08:38;14.67;;;8.90;;
5157;SDS011;2598;52.364;9.772;2023-06-22T06:11:04;13.60;;;8.57;;
5157;SDS011;2598;52.364;9.772;2023-06-22T06:13:30;15.47;;;8.97;;
5157;SDS011;2598;52.364;9.772;2023-06-22T06:15:56;16.00;;;8.73;;
5157;SDS011;2598;52.364;9.772;2023-06-22T06:18:22;17.90;;;7.73;;
5157;SDS011;2598;52.364;9.772;2023-06-22T06:20:48;16.80;;;10.50;;
5157;SDS011;2598;52.364;9.772;2023-06-22T06:23:14;11.03;;;7.90;;
5157;SDS011;2598;52.364;9.772;2023-06-22T06:25:40;16.30;;;9.00;;
5157;SDS011;2598;52.364;9.772;2023-06-22T06:28:06;12.97;;;8.03;;
5157;SDS011;2598;52.364;9.772;2023-06-22T06:30:32;14.03;;;8.67;;
5157;SDS011;2598;52.364;9.772;2023-06-22T06:32:58;14.23;;;7.90;;
5157;SDS011;2598;52.364;9.772;2023-06-22T06:35:24;10.93;;;7.83;;
5157;SDS011;2598;52.364;9.772;2023-06-22T06:37:50;12.37;;;7.90;;
5157;SDS011;2598;52.364;9.772;2023-06-22T06:40:17;13.60;;;7.27;;
5157;SDS011;2598;52.364;9.772;2023-06-22T06:42:44;10.23;;;6.87;;
5157;SDS011;2598;52.364;9.772;2023-06-22T06:45:18;13.20;;;7.23;;
5157;SDS011;2598;52.364;9.772;2023-06-22T06:47:44;12.37;;;7.47;;
5157;SDS011;2598;52.364;9.772;2023-06-22T06:50:10;12.47;;;7.03;;
5157;SDS011;2598;52.364;9.772;2023-06-22T06:52:36;14.17;;;6.70;;
5157;SDS011;2598;52.364;9.772;2023-06-22T06:55:02;10.93;;;6.70;;
5157;SDS011;2598;52.364;9.772;2023-06-22T06:57:33;15.80;;;7.57;;
5157;SDS011;2598;52.364;9.772;2023-06-22T06:59:59;12.27;;;8.33;;
5157;SDS011;2598;52.364;9.772;2023-06-22T07:02:26;11.47;;;6.97;;
5157;SDS011;2598;52.364;9.772;2023-06-22T07:04:55;9.00;;;6.53;;
5157;SDS011;2598;52.364;9.772;2023-06-22T07:07:20;10.20;;;7.03;;
5157;SDS011;2598;52.364;9.772;2023-06-22T07:09:46;12.37;;;6.03;;
5157;SDS011;2598;52.364;9.772;2023-06-22T07:12:12;7.47;;;4.83;;
5157;SDS011;2598;52.364;9.772;2023-06-22T07:14:38;8.90;;;5.87;;
5157;SDS011;2598;52.364;9.772;2023-06-22T07:17:04;8.33;;;5.57;;
5157;SDS011;2598;52.364;9.772;2023-06-22T07:19:32;9.77;;;6.07;;
5157;SDS011;2598;52.364;9.772;2023-06-22T07:21:58;8.97;;;5.93;;
5157;SDS011;2598;52.364;9.772;2023-06-22T07:24:24;8.40;;;5.43;;
5157;SDS011;2598;52.364;9.772;2023-06-22T07:26:50;9.13;;;5.73;;
5157;SDS011;2598;52.364;9.772;2023-06-22T07:29:17;13.03;;;6.87;;
5157;SDS011;2598;52.364;9.772;2023-06-22T07:31:43;9.70;;;5.70;;
5157;SDS011;2598;52.364;9.772;2023-06-22T07:34:09;15.53;;;5.83;;
5157;SDS011;2598;52.364;9.772;2023-06-22T07:36:35;10.80;;;6.00;;
5157;SDS011;2598;52.364;9.772;2023-06-22T07:39:04;9.23;;;5.80;;
5157;SDS011;2598;52.364;9.772;2023-06-22T07:41:30;8.60;;;5.80;;
5157;SDS011;2598;52.364;9.772;2023-06-22T07:43:56;10.40;;;6.23;;
5157;SDS011;2598;52.364;9.772;2023-06-22T07:46:23;8.17;;;5.97;;
5157;SDS011;2598;52.364;9.772;2023-06-22T07:48:49;10.17;;;5.80;;
5157;SDS011;2598;52.364;9.772;2023-06-22T07:51:15;10.03;;;6.60;;
5157;SDS011;2598;52.364;9.772;2023-06-22T07:53:42;9.37;;;6.50;;
5157;SDS011;2598;52.364;9.772;2023-06-22T07:56:11;9.03;;;6.07;;
5157;SDS011;2598;52.364;9.772;2023-06-22T07:58:37;8.53;;;6.50;;
5157;SDS011;2598;52.364;9.772;2023-06-22T08:01:03;9.40;;;6.20;;
5157;SDS011;2598;52.364;9.772;2023-06-22T08:03:29;9.83;;;6.00;;
5157;SDS011;2598;52.364;9.772;2023-06-22T08:05:55;9.37;;;6.37;;
5157;SDS011;2598;52.364;9.772;2023-06-22T08:08:21;9.87;;;6.10;;
5157;SDS011;2598;52.364;9.772;2023-06-22T08:10:47;9.80;;;5.83;;
5157;SDS011;2598;52.364;9.772;2023-06-22T08:13:13;9.43;;;6.27;;
5157;SDS011;2598;52.364;9.772;2023-06-22T08:15:39;10.90;;;7.00;;
5157;SDS011;2598;52.364;9.772;2023-06-22T08:18:05;9.60;;;6.53;;
5157;SDS011;2598;52.364;9.772;2023-06-22T08:20:31;10.33;;;7.30;;
5157;SDS011;2598;52.364;9.772;2023-06-22T08:22:57;12.10;;;6.73;;
5157;SDS011;2598;52.364;9.772;2023-06-22T08:25:30;12.60;;;6.20;;
5157;SDS011;2598;52.364;9.772;2023-06-22T08:27:56;8.80;;;6.47;;
5157;SDS011;2598;52.364;9.772;2023-06-22T08:30:22;9.57;;;6.70;;
5157;SDS011;2598;52.364;9.772;2023-06-22T08:32:48;8.90;;;6.87;;
5157;SDS011;2598;52.364;9.772;2023-06-22T08:35:14;11.70;;;6.80;;
5157;SDS011;2598;52.364;9.772;2023-06-22T08:37:40;10.03;;;6.93;;
5157;SDS011;2598;52.364;9.772;2023-06-22T08:40:07;14.70;;;6.70;;
5157;SDS011;2598;52.364;9.772;2023-06-22T08:42:34;11.30;;;7.50;;
5157;SDS011;2598;52.364;9.772;2023-06-22T08:45:00;16.13;;;7.20;;
5157;SDS011;2598;52.364;9.772;2023-06-22T08:47:29;9.57;;;7.07;;
5157;SDS011;2598;52.364;9.772;2023-06-22T08:49:55;8.90;;;7.23;;
5157;SDS011;2598;52.364;9.772;2023-06-22T08:52:21;12.23;;;6.97;;
5157;SDS011;2598;52.364;9.772;2023-06-22T08:54:48;9.80;;;6.90;;
5157;SDS011;2598;52.364;9.772;2023-06-22T08:57:14;11.33;;;7.80;;
5157;SDS011;2598;52.364;9.772;2023-06-22T08:59:40;9.30;;;7.60;;
5157;SDS011;2598;52.364;9.772;2023-06-22T09:02:07;15.67;;;7.53;;
5157;SDS011;2598;52.364;9.772;2023-06-22T09:04:32;11.87;;;7.87;;
5157;SDS011;2598;52.364;9.772;2023-06-22T09:07:00;12.33;;;7.10;;
5157;SDS011;2598;52.364;9.772;2023-06-22T09:09:26;10.17;;;7.10;;
5157;SDS011;2598;52.364;9.772;2023-06-22T09:11:52;11.67;;;7.97;;
5157;SDS011;2598;52.364;9.772;2023-06-22T09:14:18;11.20;;;7.80;;
5157;SDS011;2598;52.364;9.772;2023-06-22T09:16:44;10.43;;;7.63;;
5157;SDS011;2598;52.364;9.772;2023-06-22T09:19:10;10.40;;;7.67;;
5157;SDS011;2598;52.364;9.772;2023-06-22T09:21:36;10.57;;;8.17;;
5157;SDS011;2598;52.364;9.772;2023-06-22T09:24:02;11.90;;;8.70;;
5157;SDS011;2598;52.364;9.772;2023-06-22T09:26:28;11.23;;;8.50;;
5157;SDS011;2598;52.364;9.772;2023-06-22T09:28:54;12.40;;;9.03;;
5157;SDS011;2598;52.364;9.772;2023-06-22T09:31:20;13.00;;;9.60;;
5157;SDS011;2598;52.364;9.772;2023-06-22T09:33:50;17.83;;;10.47;;
5157;SDS011;2598;52.364;9.772;2023-06-22T09:36:16;14.60;;;10.80;;
5157;SDS011;2598;52.364;9.772;2023-06-22T09:38:42;16.17;;;12.00;;
5157;SDS011;2598;52.364;9.772;2023-06-22T09:41:08;15.97;;;11.10;;
5157;SDS011;2598;52.364;9.772;2023-06-22T09:43:34;16.83;;;12.80;;
5157;SDS011;2598;52.364;9.772;2023-06-22T09:46:01;13.30;;;10.90;;
5157;SDS011;2598;52.364;9.772;2023-06-22T09:48:27;16.80;;;12.30;;
5157;SDS011;2598;52.364;9.772;2023-06-22T09:50:54;16.37;;;11.93;;
5157;SDS011;2598;52.364;9.772;2023-06-22T09:53:20;13.67;;;10.40;;
5157;SDS011;2598;52.364;9.772;2023-06-22T09:55:46;15.23;;;11.70;;
5157;SDS011;2598;52.364;9.772;2023-06-22T09:58:12;13.13;;;10.50;;
5157;SDS011;2598;52.364;9.772;2023-06-22T10:00:38;14.63;;;10.77;;
5157;SDS011;2598;52.364;9.772;2023-06-22T10:03:06;12.80;;;10.20;;
5157;SDS011;2598;52.364;9.772;2023-06-22T10:05:32;12.87;;;10.13;;
5157;SDS011;2598;52.364;9.772;2023-06-22T10:07:58;14.70;;;12.03;;
5157;SDS011;2598;52.364;9.772;2023-06-22T10:10:24;16.33;;;11.03;;
5157;SDS011;2598;52.364;9.772;2023-06-22T10:12:57;13.37;;;10.80;;
5157;SDS011;2598;52.364;9.772;2023-06-22T10:15:23;15.90;;;10.87;;
5157;SDS011;2598;52.364;9.772;2023-06-22T10:17:49;13.60;;;11.30;;
5157;SDS011;2598;52.364;9.772;2023-06-22T10:20:15;14.40;;;10.00;;
5157;SDS011;2598;52.364;9.772;2023-06-22T10:22:44;13.80;;;10.43;;
5157;SDS011;2598;52.364;9.772;2023-06-22T10:25:11;16.40;;;11.27;;
5157;SDS011;2598;52.364;9.772;2023-06-22T10:27:37;13.13;;;9.57;;
5157;SDS011;2598;52.364;9.772;2023-06-22T10:30:07;13.13;;;10.03;;
5157;SDS011;2598;52.364;9.772;2023-06-22T10:32:34;14.80;;;10.80;;
5157;SDS011;2598;52.364;9.772;2023-06-22T10:34:59;12.10;;;10.20;;
5157;SDS011;2598;52.364;9.772;2023-06-22T10:37:25;17.60;;;11.70;;
5157;SDS011;2598;52.364;9.772;2023-06-22T10:39:51;15.83;;;11.20;;
5157;SDS011;2598;52.364;9.772;2023-06-22T10:42:17;14.37;;;11.20;;
5157;SDS011;2598;52.364;9.772;2023-06-22T10:44:43;13.63;;;10.90;;
5157;SDS011;2598;52.364;9.772;2023-06-22T10:47:09;13.03;;;10.00;;
5157;SDS011;2598;52.364;9.772;2023-06-22T10:49:37;17.50;;;10.60;;
5157;SDS011;2598;52.364;9.772;2023-06-22T10:52:03;13.53;;;10.47;;
5157;SDS011;2598;52.364;9.772;2023-06-22T10:54:29;14.47;;;11.80;;
5157;SDS011;2598;52.364;9.772;2023-06-22T10:56:55;14.00;;;11.37;;
5157;SDS011;2598;52.364;9.772;2023-06-22T10:59:21;21.70;;;12.60;;
5157;SDS011;2598;52.364;9.772;2023-06-22T11:01:48;14.67;;;10.40;;
5157;SDS011;2598;52.364;9.772;2023-06-22T11:04:14;13.30;;;11.33;;
5157;SDS011;2598;52.364;9.772;2023-06-22T11:06:42;15.50;;;11.33;;
5157;SDS011;2598;52.364;9.772;2023-06-22T11:09:08;12.97;;;10.13;;
5157;SDS011;2598;52.364;9.772;2023-06-22T11:11:34;11.93;;;10.27;;
5157;SDS011;2598;52.364;9.772;2023-06-22T11:14:00;17.00;;;10.10;;
5157;SDS011;2598;52.364;9.772;2023-06-22T11:16:26;15.43;;;12.73;;
5157;SDS011;2598;52.364;9.772;2023-06-22T11:18:52;14.90;;;10.80;;
5157;SDS011;2598;52.364;9.772;2023-06-22T11:21:18;18.27;;;10.67;;
5157;SDS011;2598;52.364;9.772;2023-06-22T11:23:45;12.93;;;10.70;;
5157;SDS011;2598;52.364;9.772;2023-06-22T11:26:11;11.63;;;9.57;;
5157;SDS011;2598;52.364;9.772;2023-06-22T11:28:37;15.50;;;10.10;;
5157;SDS011;2598;52.364;9.772;2023-06-22T11:31:03;13.30;;;10.87;;
5157;SDS011;2598;52.364;9.772;2023-06-22T11:33:29;14.37;;;10.50;;
5157;SDS011;2598;52.364;9.772;2023-06-22T11:35:55;16.53;;;10.70;;
5157;SDS011;2598;52.364;9.772;2023-06-22T11:38:22;16.93;;;11.53;;
5157;SDS011;2598;52.364;9.772;2023-06-22T11:40:48;13.00;;;10.47;;
5157;SDS011;2598;52.364;9.772;2023-06-22T11:43:14;14.57;;;10.70;;
5157;SDS011;2598;52.364;9.772;2023-06-22T11:45:40;12.20;;;9.93;;
5157;SDS011;2598;52.364;9.772;2023-06-22T11:48:06;16.33;;;11.00;;
5157;SDS011;2598;52.364;9.772;2023-06-22T11:50:32;14.00;;;10.70;;
5157;SDS011;2598;52.364;9.772;2023-06-22T11:53:01;13.40;;;10.87;;
5157;SDS011;2598;52.364;9.772;2023-06-22T11:55:27;21.50;;;11.70;;
5157;SDS011;2598;52.364;9.772;2023-06-22T11:57:56;12.83;;;10.03;;
5157;SDS011;2598;52.364;9.772;2023-06-22T12:00:25;12.13;;;10.10;;
5157;SDS011;2598;52.364;9.772;2023-06-22T12:02:51;11.90;;;10.00;;
5157;SDS011;2598;52.364;9.772;2023-06-22T12:05:18;14.67;;;10.70;;
5157;SDS011;2598;52.364;9.772;2023-06-22T12:07:45;14.13;;;10.23;;
5157;SDS011;2598;52.364;9.772;2023-06-22T12:10:11;19.43;;;10.10;;
5157;SDS011;2598;52.364;9.772;2023-06-22T12:12:37;12.80;;;9.90;;
5157;SDS011;2598;52.364;9.772;2023-06-22T12:15:03;15.63;;;10.67;;
5157;SDS011;2598;52.364;9.772;2023-06-22T12:17:30;15.03;;;9.77;;
5157;SDS011;2598;52.364;9.772;2023-06-22T12:19:56;11.90;;;9.73;;
5157;SDS011;2598;52.364;9.772;2023-06-22T12:22:22;11.80;;;9.57;;
5157;SDS011;2598;52.364;9.772;2023-06-22T12:24:48;16.80;;;10.37;;
5157;SDS011;2598;52.364;9.772;2023-06-22T12:27:15;13.93;;;10.47;;
5157;SDS011;2598;52.364;9.772;2023-06-22T12:29:42;13.67;;;10.40;;
5157;SDS011;2598;52.364;9.772;2023-06-22T12:32:08;12.47;;;9.80;;
5157;SDS011;2598;52.364;9.772;2023-06-22T12:34:34;14.17;;;8.77;;
5157;SDS011;2598;52.364;9.772;2023-06-22T12:37:00;11.80;;;9.20;;
5157;SDS011;2598;52.364;9.772;2023-06-22T12:39:27;15.77;;;9.67;;
5157;SDS011;2598;52.364;9.772;2023-06-22T12:41:53;11.83;;;9.57;;
5157;SDS011;2598;52.364;9.772;2023-06-22T12:44:18;13.57;;;11.17;;
5157;SDS011;2598;52.364;9.772;2023-06-22T12:46:44;11.00;;;9.03;;
5157;SDS011;2598;52.364;9.772;2023-06-22T12:49:10;14.23;;;10.17;;
5157;SDS011;2598;52.364;9.772;2023-06-22T12:51:39;10.80;;;9.10;;
5157;SDS011;2598;52.364;9.772;2023-06-22T12:54:06;11.93;;;8.73;;
5157;SDS011;2598;52.364;9.772;2023-06-22T12:56:32;13.27;;;10.20;;
5157;SDS011;2598;52.364;9.772;2023-06-22T12:58:58;12.03;;;8.80;;
5157;SDS011;2598;52.364;9.772;2023-06-22T13:01:26;13.33;;;9.40;;
5157;SDS011;2598;52.364;9.772;2023-06-22T13:03:52;12.20;;;9.10;;
5157;SDS011;2598;52.364;9.772;2023-06-22T13:06:19;13.50;;;9.20;;
5157;SDS011;2598;52.364;9.772;2023-06-22T13:08:45;12.27;;;8.97;;
5157;SDS011;2598;52.364;9.772;2023-06-22T13:11:11;14.20;;;9.93;;
5157;SDS011;2598;52.364;9.772;2023-06-22T13:13:37;15.00;;;10.03;;
5157;SDS011;2598;52.364;9.772;2023-06-22T13:16:03;12.27;;;9.13;;
5157;SDS011;2598;52.364;9.772;2023-06-22T13:18:29;12.13;;;9.33;;
5157;SDS011;2598;52.364;9.772;2023-06-22T13:20:55;9.80;;;8.60;;
5157;SDS011;2598;52.364;9.772;2023-06-22T13:23:21;11.90;;;9.70;;
5157;SDS011;2598;52.364;9.772;2023-06-22T13:25:47;13.70;;;10.77;;
5157;SDS011;2598;52.364;9.772;2023-06-22T13:28:13;12.30;;;10.30;;
5157;SDS011;2598;52.364;9.772;2023-06-22T13:30:40;12.10;;;10.00;;
5157;SDS011;2598;52.364;9.772;2023-06-22T13:33:06;11.93;;;10.07;;
5157;SDS011;2598;52.364;9.772;2023-06-22T13:35:33;11.70;;;10.10;;
5157;SDS011;2598;52.364;9.772;2023-06-22T13:38:00;13.60;;;9.37;;
5157;SDS011;2598;52.364;9.772;2023-06-22T13:40:26;12.43;;;9.33;;
5157;SDS011;2598;52.364;9.772;2023-06-22T13:42:52;13.37;;;10.87;;
5157;SDS011;2598;52.364;9.772;2023-06-22T13:45:18;11.63;;;9.33;;
5157;SDS011;2598;52.364;9.772;2023-06-22T13:47:45;10.43;;;9.00;;
5157;SDS011;2598;52.364;9.772;2023-06-22T13:50:11;19.40;;;10.10;;
5157;SDS011;2598;52.364;9.772;2023-06-22T13:52:38;14.57;;;10.50;;
5157;SDS011;2598;52.364;9.772;2023-06-22T13:55:04;16.10;;;11.23;;
5157;SDS011;2598;52.364;9.772;2023-06-22T13:57:31;13.00;;;10.13;;
5157;SDS011;2598;52.364;9.772;2023-06-22T13:59:57;14.77;;;11.23;;
5157;SDS011;2598;52.364;9.772;2023-06-22T14:02:25;14.23;;;10.43;;
5157;SDS011;2598;52.364;9.772;2023-06-22T14:04:51;13.30;;;10.50;;
5157;SDS011;2598;52.364;9.772;2023-06-22T14:07:17;12.93;;;10.53;;
5157;SDS011;2598;52.364;9.772;2023-06-22T14:09:46;16.23;;;12.00;;
5157;SDS011;2598;52.364;9.772;2023-06-22T14:12:12;13.10;;;11.00;;
5157;SDS011;2598;52.364;9.772;2023-06-22T14:14:38;14.97;;;12.03;;
5157;SDS011;2598;52.364;9.772;2023-06-22T14:17:04;14.83;;;12.53;;
5157;SDS011;2598;52.364;9.772;2023-06-22T14:19:31;22.30;;;13.43;;
5157;SDS011;2598;52.364;9.772;2023-06-22T14:21:57;16.17;;;12.50;;
5157;SDS011;2598;52.364;9.772;2023-06-22T14:24:23;19.37;;;14.27;;
5157;SDS011;2598;52.364;9.772;2023-06-22T14:26:49;15.70;;;12.60;;
5157;SDS011;2598;52.364;9.772;2023-06-22T14:29:15;16.50;;;13.70;;
5157;SDS011;2598;52.364;9.772;2023-06-22T14:31:44;16.73;;;14.30;;
5157;SDS011;2598;52.364;9.772;2023-06-22T14:34:10;15.43;;;13.53;;
5157;SDS011;2598;52.364;9.772;2023-06-22T14:36:36;15.40;;;13.03;;
5157;SDS011;2598;52.364;9.772;2023-06-22T14:39:02;23.13;;;13.77;;
5157;SDS011;2598;52.364;9.772;2023-06-22T14:41:31;14.83;;;12.87;;
5157;SDS011;2598;52.364;9.772;2023-06-22T14:43:57;19.30;;;16.20;;
5157;SDS011;2598;52.364;9.772;2023-06-22T14:46:23;14.70;;;12.70;;
5157;SDS011;2598;52.364;9.772;2023-06-22T14:48:49;14.70;;;12.07;;
5157;SDS011;2598;52.364;9.772;2023-06-22T14:51:15;15.33;;;12.43;;